Latest Weather Observations for Casey*

IDT60801

Issued at 6:31 pm EST Thursday 30 June 2016 (issued every 30 minutes, with the page automatically refreshed every 10 minutes)

About weather observations | Map of weather stations | Latest weather observations for ANT | Other Formats
Station Details ID: 300017 Name: CASEY Lat: -66.28 Lon: 110.52 Height: 40.0 m
Data from the previous 72 hours. | See also: Recent months at Casey*
Date/Time
EST
Temp
°C
App
Temp
°C
Dew
Point
°C
Rel
Hum
%
Delta-T
°C
Wind Press
QNH
hPa
Press
MSL
hPa
Rain since
9am
mm
Dir  Spd
km/h
Gust
km/h
Spd
kts
Gust
kts
30/06:30pm -22.9 -29.5 -25.5 79 - N 15 20 8 11 971.4 - -
30/06:00pm -23.0 -30.0 -25.9 77 - NNE 17 24 9 13 971.3 - -
30/05:30pm -22.7 -29.7 -25.5 78 - NNE 17 24 9 13 971.7 - -
30/05:00pm -22.1 -28.7 -24.5 81 - N 15 20 8 11 971.7 - -
30/04:30pm -22.3 -29.8 -24.7 81 - N 20 30 11 16 972.1 - -
30/04:00pm -22.7 -30.1 -25.6 77 - N 19 24 10 13 972.3 972.8 -
30/03:30pm -22.9 -30.3 -25.5 79 - NNE 19 24 10 13 972.7 - -
30/03:00pm -23.4 -30.8 -26.1 78 - NNE 19 22 10 12 973.0 - -
30/02:30pm -22.7 -30.2 -25.0 81 - N 20 24 11 13 973.4 - -
30/02:00pm -22.9 -29.5 -25.1 82 - NNW 15 20 8 11 974.0 - -
30/01:30pm -22.8 -29.0 -24.9 83 - NNW 13 17 7 9 974.3 - -
30/01:00pm -22.8 -28.6 -24.9 83 - NW 11 17 6 9 974.9 975.4 -
30/12:30pm -23.1 -28.6 -25.8 78 - N 9 13 5 7 975.4 - -
30/12:00pm -24.1 -29.0 -27.4 74 - N 6 7 3 4 975.7 - -
30/11:30am -24.2 -29.1 -27.1 77 - E 6 6 3 3 976.1 - -
30/11:00am -25.0 -30.5 -28.0 76 - S 9 11 5 6 976.6 - -
30/10:30am -24.6 -29.7 -27.4 78 - S 7 9 4 5 977.1 - -
30/10:00am -24.4 -29.9 -27.3 77 - S 9 11 5 6 977.4 977.9 -
30/09:30am -23.9 -27.7 -26.8 77 - CALM 0 0 0 0 977.8 - -
30/09:00am -24.6 -30.5 -27.7 75 - S 11 15 6 8 978.3 - -
30/08:30am -22.8 -27.7 -26.0 75 - SE 6 7 3 4 978.6 - -
30/08:00am -22.6 -27.5 -25.8 75 - SSE 6 7 3 4 978.8 - -
30/07:30am -22.6 -27.5 -25.6 76 - S 6 9 3 5 978.9 - -
30/07:00am -23.0 -27.9 -26.0 76 - SSW 6 7 3 4 979.1 979.7 -
30/06:30am -23.0 -27.9 -26.2 75 - W 6 7 3 4 979.3 - -
30/06:00am -22.9 -27.8 -26.1 75 - N 6 7 3 4 979.7 - -
30/05:30am -22.8 -27.7 -25.8 76 - WNW 6 7 3 4 980.0 - -
30/05:00am -23.5 -29.0 -26.7 75 - S 9 11 5 6 980.4 - -
30/04:30am -23.0 -28.8 -26.0 76 - S 11 13 6 7 980.5 - -
30/04:00am -21.9 -27.3 -25.1 75 - S 9 15 5 8 980.9 981.5 -
30/03:30am -21.2 -26.6 -24.4 75 - S 9 11 5 6 981.0 - -
30/03:00am -21.3 -27.5 -24.7 74 - SSE 13 17 7 9 981.2 - -
30/02:30am -21.5 -27.7 -24.9 74 - S 13 15 7 8 981.5 - -
30/02:00am -21.8 -28.4 -25.2 74 - S 15 15 8 8 981.6 - -
30/01:30am -21.6 -27.8 -25.0 74 - S 13 13 7 7 981.8 - -
30/01:00am -21.4 -26.5 -24.6 75 - S 7 9 4 5 982.1 982.7 -
30/12:30am -21.3 -26.7 -24.5 75 - SE 9 11 5 6 982.2 - -
30/12:00am -20.7 -24.4 -24.6 71 - CALM 0 7 0 4 982.1 - -
 
Date/Time
EST
Temp
°C
App
Temp
°C
Dew
Point
°C
Rel
Hum
%
Delta-T
°C
Wind Press
QNH
hPa
Press
MSL
hPa
Rain since
9am
mm
Dir  Spd
km/h
Gust
km/h
Spd
kts
Gust
kts
29/11:30pm -20.1 -25.1 -24.0 71 - NNW 7 9 4 5 982.1 - -
29/11:00pm -20.1 -25.1 -24.1 70 - N 7 9 4 5 982.2 - -
29/10:30pm -20.3 -24.0 -23.3 77 - CALM 0 0 0 0 982.2 - -
29/10:00pm -20.1 -25.1 -23.1 77 - SSE 7 9 4 5 982.2 982.8 -
29/09:30pm -19.7 -24.5 -22.7 77 - SSE 6 7 3 4 982.2 - -
29/09:00pm -19.2 -24.2 -22.3 76 - NE 7 9 4 5 982.4 - -
29/08:30pm -18.9 -24.7 -23.1 69 - N 11 17 6 9 982.2 - -
29/08:00pm -18.7 -24.1 -22.9 69 - N 9 13 5 7 981.9 - -
29/07:30pm -18.8 -25.0 -23.0 69 - N 13 17 7 9 981.7 - -
29/07:00pm -18.7 -25.2 -22.5 72 - N 15 19 8 10 981.7 982.3 -
29/06:30pm -18.7 -25.6 -22.3 73 - N 17 20 9 11 981.5 - -
29/06:00pm -18.7 -26.2 -22.3 73 - N 20 26 11 14 981.6 - -
29/05:30pm -18.7 -26.0 -22.5 72 - N 19 24 10 13 981.4 - -
29/05:00pm -18.5 -25.4 -22.0 74 - NNE 17 20 9 11 981.2 - -
29/04:30pm -18.9 -25.8 -22.2 75 - NNE 17 20 9 11 981.3 - -
29/04:00pm -17.9 -23.2 -21.1 76 - N 9 13 5 7 981.0 981.6 -
29/03:30pm -17.1 -21.1 -20.8 73 - SE 2 6 1 3 981.1 - -
29/03:00pm -17.1 -21.5 -20.8 73 - SW 4 6 2 3 981.0 - -
29/02:30pm -17.1 -21.9 -21.1 71 - SSE 6 9 3 5 981.0 - -
29/02:00pm -17.4 -22.2 -21.2 72 - E 6 9 3 5 980.9 - -
29/01:30pm -17.5 -22.3 -22.6 64 - ESE 6 7 3 4 980.6 - -
29/01:00pm -17.7 -21.4 -22.8 64 - CALM 0 4 0 2 980.6 981.2 -
29/12:30pm -18.2 -23.6 -23.0 66 - ENE 9 11 5 6 980.6 - -
29/12:00pm -19.1 -24.5 -23.0 71 - ENE 9 11 5 6 980.4 - -
29/11:30am -19.4 -25.2 -23.3 71 - ENE 11 13 6 7 980.4 - -
29/11:00am -20.1 -26.3 -24.3 69 - NE 13 15 7 8 980.3 - -
29/10:30am -21.0 -27.2 -24.8 71 - NNE 13 15 7 8 980.1 - -
29/10:00am -21.0 -27.2 -25.0 70 - NNE 13 15 7 8 979.8 980.4 -
29/09:30am -20.8 -26.3 -25.6 65 - NNE 9 13 5 7 979.9 - -
29/09:00am -19.5 -24.9 -24.4 65 - NE 9 11 5 6 979.7 - -
29/08:30am -19.3 -24.4 -24.5 63 - NE 7 9 4 5 979.6 - -
29/08:00am -19.1 -22.8 -24.9 60 - CALM 0 2 0 1 979.5 - -
29/07:30am -20.1 -25.6 -25.5 62 - SSE 9 11 5 6 979.5 - -
29/07:00am -20.9 -26.4 -26.4 61 - S 9 11 5 6 979.3 979.9 -
29/06:30am -20.6 -24.7 -26.3 60 - NNE 2 13 1 7 979.2 - -
29/06:00am -19.8 -25.2 -25.0 63 - N 9 13 5 7 979.0 - -
29/05:30am -20.7 -26.9 -26.0 62 - N 13 17 7 9 978.6 - -
29/05:00am -20.5 -27.1 -24.5 70 - NNE 15 19 8 10 978.4 - -
29/04:30am -20.8 -27.4 -24.8 70 - N 15 17 8 9 978.4 - -
29/04:00am -19.9 -25.7 -24.8 65 - N 11 19 6 10 978.2 978.8 -
29/03:30am -19.8 -26.0 -26.1 57 - NNE 13 17 7 9 977.9 - -
29/03:00am -20.1 -25.2 -25.8 60 - E 7 11 4 6 977.9 - -
29/02:30am -19.8 -24.7 -25.0 63 - E 6 13 3 7 978.1 - -
29/02:00am -20.0 -26.6 -24.9 65 - S 15 17 8 9 977.9 - -
29/01:30am -20.2 -26.8 -25.0 65 - S 15 17 8 9 977.6 - -
29/01:00am -20.6 -26.8 -25.3 66 - SSE 13 15 7 8 977.5 978.0 -
29/12:30am -20.7 -27.3 -25.9 63 - S 15 19 8 10 977.3 - -
29/12:00am -19.7 -24.8 -25.3 61 - SE 7 11 4 6 977.3 - -
 
Date/Time
EST
Temp
°C
App
Temp
°C
Dew
Point
°C
Rel
Hum
%
Delta-T
°C
Wind Press
QNH
hPa
Press
MSL
hPa
Rain since
9am
mm
Dir  Spd
km/h
Gust
km/h
Spd
kts
Gust
kts
28/11:30pm -19.4 -24.5 -24.8 62 - E 7 9 4 5 977.2 - -
28/11:00pm -18.7 -24.1 -24.0 63 - NNE 9 11 5 6 977.1 - -
28/10:30pm -19.8 -26.0 -24.7 65 - NE 13 15 7 8 976.8 - -
28/10:00pm -20.5 -26.7 -25.0 67 - NE 13 15 7 8 976.8 977.3 -
28/09:30pm -20.6 -26.8 -24.6 70 - NNE 13 17 7 9 976.7 - -
28/09:00pm -20.5 -26.7 -24.5 70 - NE 13 15 7 8 976.6 - -
28/08:30pm -19.6 -24.6 -24.1 67 - N 7 11 4 6 976.5 - -
28/08:00pm -19.4 -25.6 -23.8 68 - NNE 13 17 7 9 976.5 - -
28/07:30pm -19.3 -25.5 -23.0 72 - N 13 13 7 7 976.3 - -
28/07:00pm -18.6 -23.6 -23.9 63 - NE 7 9 4 5 975.9 976.4 -
28/06:30pm -19.8 -26.0 -24.5 66 - S 13 15 7 8 975.7 - -
28/06:00pm -19.4 -24.8 -24.5 64 - SSW 9 11 5 6 975.8 - -
28/05:30pm -17.7 -22.5 -23.9 58 - SE 6 9 3 5 975.9 - -
28/05:00pm -17.7 -22.7 -23.6 60 - E 7 9 4 5 975.9 - -
28/04:30pm -18.5 -23.9 -23.6 64 - NE 9 11 5 6 976.2 - -
28/04:00pm -19.4 -25.6 -24.1 66 - SSE 13 15 7 8 976.4 976.9 -
28/03:30pm -19.8 -26.4 -24.0 69 - S 15 19 8 10 976.5 - -
28/03:00pm -19.6 -26.2 -24.1 67 - S 15 17 8 9 976.6 - -
28/02:30pm -19.0 -24.8 -24.2 63 - S 11 13 6 7 976.9 - -
28/02:00pm -17.6 -23.0 -24.0 57 - SSE 9 13 5 7 976.9 - -
28/01:30pm -18.1 -25.4 -23.6 62 - SSE 19 20 10 11 976.9 - -
28/01:00pm -19.7 -27.0 -23.6 71 - SSE 19 22 10 12 977.0 977.5 -
28/12:30pm -19.8 -26.7 -24.2 68 - SSE 17 20 9 11 977.2 - -
28/12:00pm -20.3 -26.9 -24.5 69 - S 15 15 8 8 977.2 - -
28/11:30am -19.7 -24.7 -24.2 67 - SSE 7 9 4 5 977.1 - -
28/11:00am -19.8 -24.3 -25.0 63 - SSE 4 11 2 6 977.1 - -
28/10:30am -18.4 -23.4 -23.7 63 - ENE 7 7 4 4 977.4 - -
28/10:00am -19.5 -24.5 -23.9 68 - SSE 7 9 4 5 977.4 977.9 -
28/09:30am -20.7 -26.5 -24.2 73 - S 11 13 6 7 977.3 - -
28/09:00am -19.8 -23.9 -24.7 65 - NE 2 7 1 4 977.3 - -
28/08:30am -18.3 -23.7 -23.4 64 - NE 9 11 5 6 977.4 - -
28/08:00am -19.6 -25.0 -23.5 71 - NE 9 11 5 6 977.7 - -
28/07:30am -21.2 -27.0 -24.4 75 - S 11 13 6 7 977.8 - -
28/07:00am -19.7 -26.6 -23.3 73 - SSE 17 17 9 9 977.9 978.4 -
28/06:30am -19.7 -26.6 -23.0 75 - S 17 20 9 11 978.3 - -
28/06:00am -20.3 -27.6 -23.3 77 - S 19 22 10 12 978.4 - -
28/05:30am -20.4 -27.7 -23.5 76 - S 19 20 10 11 978.9 - -
28/05:00am -20.5 -27.4 -24.1 73 - SSE 17 20 9 11 979.2 - -
28/04:30am -20.2 -26.4 -23.8 73 - SSE 13 17 7 9 979.4 - -
28/04:00am -20.1 -26.6 -23.5 74 - SSE 15 17 8 9 979.7 980.3 -
28/03:30am -20.9 -27.8 -23.7 78 - SE 17 17 9 9 980.0 - -
28/03:00am -21.4 -28.0 -24.8 74 - SSE 15 15 8 8 980.2 - -
28/02:30am -21.1 -27.3 -24.0 77 - S 13 13 7 7 980.3 - -
28/02:00am -20.7 -27.3 -24.1 74 - SSE 15 15 8 8 980.5 - -
28/01:30am -21.1 -27.3 -23.6 80 - SSE 13 15 7 8 980.8 - -
28/01:00am -21.8 -27.6 -25.3 73 - SSE 11 15 6 8 981.1 981.7 -
28/12:30am -20.1 -25.5 -22.6 80 - SSE 9 13 5 7 981.1 - -
28/12:00am -20.0 -26.1 -22.1 83 - SSE 13 15 7 8 981.0 - -
 
Date/Time
EST
Temp
°C
App
Temp
°C
Dew
Point
°C
Rel
Hum
%
Delta-T
°C
Wind Press
QNH
hPa
Press
MSL
hPa
Rain since
9am
mm
Dir  Spd
km/h
Gust
km/h
Spd
kts
Gust
kts
27/11:30pm -20.6 -26.4 -23.0 81 - S 11 13 6 7 981.4 - -
27/11:00pm -21.7 -27.1 -24.6 77 - S 9 11 5 6 981.5 - -
27/10:30pm -18.7 -23.5 -21.0 82 - S 6 7 3 4 981.5 - -
27/10:00pm -18.8 -22.4 -20.9 83 - CALM 0 0 0 0 981.5 982.1 -
27/09:30pm -19.2 -23.2 -21.3 83 - S 2 6 1 3 981.7 - -
27/09:00pm -19.2 -22.8 -21.3 83 - CALM 0 0 0 0 981.7 - -

Other Formats:

Comma delimited format used in spreadsheet applications
http://www.bom.gov.au/fwo/IDT60803/IDT60803.89611.axf

JavaScript Object Notation format (JSON) in row-major order
http://www.bom.gov.au/fwo/IDT60803/IDT60803.89611.json